Time;durP1;ratioP1;P1;durP2;ratioP2;P2;SDS_P1;SDS_P2;PMS_P1;PMS_P2;Temp;Humidity;BMP_temperature;BMP_pressure;BME280_temperature;BME280_humidity;BME280_pressure;Samples;Min_cycle;Max_cycle;Signal;HPM_P1;HPM_P2
2023/10/10 00:01:27;;;;;;;;;;;;;;;26.70;25.76;98465.53;5014890;28;19922;-86
2023/10/10 00:03:53;;;;;;;;;;;;;;;26.36;26.32;98461.63;5005887;28;19921;-87
2023/10/10 00:06:22;;;;;;;;;;;;;;;24.56;28.42;98476.63;5010801;28;19925;-87
2023/10/10 00:08:50;;;;;;;;;;;;;;;24.38;29.05;98470.53;5014177;28;19925;-87
2023/10/10 00:11:19;;;;;;;;;;;;;;;24.73;28.61;98469.91;5014854;28;19921;-87
2023/10/10 00:13:46;;;;;;;;;;;;;;;25.15;27.99;98469.13;5016046;28;19921;-87
2023/10/10 00:16:35;;;;;;;;;;;;;;;25.94;26.64;98469.84;5012209;28;19921;-85
2023/10/10 00:19:11;;;;;;;;;;;;;;;25.85;26.95;98478.09;5013861;28;19925;-85
2023/10/10 00:21:40;;;;;;;;;;;;;;;25.08;28.18;98465.66;5024445;28;20369;-85
2023/10/10 00:24:10;;;;;;;;;;;;;;;23.33;30.21;98474.44;5011097;28;20015;-85
2023/10/10 00:26:37;;;;;;;;;;;;;;;25.06;28.19;98463.28;5012264;28;19983;-85
2023/10/10 00:29:06;;;;;;;;;;;;;;;26.20;26.55;98465.22;5010698;28;20369;-84
2023/10/10 00:31:32;;;;;;;;;;;;;;;25.96;26.45;98458.94;5014260;28;19929;-87
2023/10/10 00:33:58;;;;;;;;;;;;;;;26.35;26.19;98468.50;5015308;28;19925;-84
2023/10/10 00:39:22;;;;;;;;;;;;;;;26.81;25.65;98459.66;5021602;28;19921;-86
2023/10/10 00:41:51;;;;;;;;;;;;;;;26.95;25.40;98459.28;5006206;28;19921;-86
2023/10/10 00:44:18;;;;;;;;;;;;;;;27.14;25.10;98455.50;5011421;28;20381;-87
2023/10/10 00:46:53;;;;;;;;;;;;;;;27.40;24.77;98454.38;5015918;28;19929;-86
2023/10/10 00:49:23;;;;;;;;;;;;;;;27.81;24.11;98453.53;5007608;28;19976;-86
2023/10/10 00:51:50;;;;;;;;;;;;;;;27.52;24.53;98450.00;5013999;28;20420;-86
2023/10/10 00:56:54;;;;;;;;;;;;;;;27.53;24.68;98443.13;5002829;28;19928;-86
2023/10/10 00:59:23;;;;;;;;;;;;;;;27.50;24.59;98448.84;5008166;28;19921;-86
2023/10/10 01:01:49;;;;;;;;;;;;;;;27.38;24.89;98448.38;5008716;28;19926;-86
2023/10/10 01:04:28;;;;;;;;;;;;;;;27.25;24.93;98446.75;5013003;28;20461;-86
2023/10/10 01:06:54;;;;;;;;;;;;;;;26.86;25.45;98442.22;5014917;28;20008;-86
2023/10/10 01:09:32;;;;;;;;;;;;;;;27.12;25.26;98440.28;5013972;28;19917;-86
2023/10/10 01:11:58;;;;;;;;;;;;;;;27.42;24.92;98444.69;5010576;28;19959;-86
2023/10/10 01:14:26;;;;;;;;;;;;;;;27.32;24.96;98444.53;5013630;28;20419;-86
2023/10/10 01:16:55;;;;;;;;;;;;;;;27.77;24.49;98447.19;5010637;28;19928;-86
2023/10/10 01:19:21;;;;;;;;;;;;;;;28.05;24.12;98451.19;5009569;28;19924;-86
2023/10/10 01:21:57;;;;;;;;;;;;;;;28.08;23.96;98455.16;5008021;28;19928;-86
2023/10/10 01:24:24;;;;;;;;;;;;;;;27.88;24.37;98460.97;5011582;28;19921;-86
2023/10/10 01:26:52;;;;;;;;;;;;;;;27.45;24.74;98461.47;5006333;28;19922;-86
2023/10/10 01:31:45;;;;;;;;;;;;;;;27.72;24.56;98455.44;5013675;28;20027;-86
2023/10/10 01:34:30;;;;;;;;;;;;;;;28.07;23.86;98462.81;5015124;28;20294;-86
2023/10/10 01:37:00;;;;;;;;;;;;;;;27.82;24.11;98457.16;5015572;28;20301;-86
2023/10/10 01:39:34;;;;;;;;;;;;;;;27.68;24.26;98455.53;5015439;28;20285;-86
2023/10/10 01:42:00;;;;;;;;;;;;;;;27.07;25.16;98457.75;5009804;28;19963;-85
2023/10/10 01:44:27;;;;;;;;;;;;;;;27.02;25.52;98463.94;5012348;28;19922;-86
2023/10/10 01:46:54;;;;;;;;;;;;;;;27.34;25.02;98458.97;5019748;28;19921;-86
2023/10/10 01:49:21;;;;;;;;;;;;;;;27.40;24.77;98462.03;5015061;28;19917;-86
2023/10/10 01:51:55;;;;;;;;;;;;;;;27.61;24.67;98457.81;5005927;28;19953;-86
2023/10/10 01:54:29;;;;;;;;;;;;;;;27.45;24.61;98460.69;5012837;28;19921;-86
2023/10/10 01:56:55;;;;;;;;;;;;;;;27.10;25.04;98457.63;5009154;28;20405;-86
2023/10/10 01:59:25;;;;;;;;;;;;;;;27.48;24.66;98457.78;5014231;28;19929;-86
2023/10/10 02:01:57;;;;;;;;;;;;;;;28.08;24.00;98462.38;5007130;28;19925;-85
2023/10/10 02:04:27;;;;;;;;;;;;;;;28.15;24.12;98455.69;5008879;28;19976;-86
2023/10/10 02:06:57;;;;;;;;;;;;;;;28.24;23.73;98469.16;5005767;28;19973;-86
2023/10/10 02:09:28;;;;;;;;;;;;;;;28.20;23.79;98465.63;5011911;28;19975;-86
2023/10/10 02:12:04;;;;;;;;;;;;;;;27.88;23.97;98475.09;5008443;28;19921;-86
2023/10/10 02:14:30;;;;;;;;;;;;;;;27.81;24.34;98461.22;5014355;28;19921;-86
2023/10/10 02:16:59;;;;;;;;;;;;;;;27.79;24.27;98463.69;5012861;28;20012;-86
2023/10/10 02:19:40;;;;;;;;;;;;;;;27.52;24.55;98463.28;5014384;28;19922;-86
2023/10/10 02:22:19;;;;;;;;;;;;;;;27.18;25.05;98458.22;5010762;28;20345;-84
2023/10/10 02:24:49;;;;;;;;;;;;;;;27.12;25.05;98457.97;5005375;28;19921;-84
2023/10/10 02:27:19;;;;;;;;;;;;;;;27.34;24.97;98461.78;5012168;28;19984;-84
2023/10/10 02:29:49;;;;;;;;;;;;;;;27.48;24.93;98456.97;5004982;28;19929;-84
2023/10/10 02:32:21;;;;;;;;;;;;;;;27.65;24.79;98458.47;5011269;28;20372;-84
2023/10/10 02:35:00;;;;;;;;;;;;;;;27.87;24.32;98457.38;5011232;28;19922;-84
2023/10/10 02:40:05;;;;;;;;;;;;;;;27.91;24.29;98455.22;5004017;28;19929;-85
2023/10/10 02:42:33;;;;;;;;;;;;;;;27.83;24.24;98453.88;5005180;28;19922;-85
2023/10/10 02:44:59;;;;;;;;;;;;;;;26.98;25.40;98452.72;5011751;28;19983;-84
2023/10/10 02:47:32;;;;;;;;;;;;;;;26.89;25.54;98455.41;5001917;28;19928;-84
2023/10/10 02:50:12;;;;;;;;;;;;;;;27.22;25.21;98451.25;5013927;28;19972;-84
2023/10/10 02:52:39;;;;;;;;;;;;;;;27.02;25.06;98461.91;5013503;28;19956;-84
2023/10/10 02:55:14;;;;;;;;;;;;;;;26.94;25.54;98465.34;5001283;28;19928;-85
2023/10/10 02:57:41;;;;;;;;;;;;;;;27.19;25.44;98462.63;5010415;28;20332;-84
2023/10/10 03:00:47;;;;;;;;;;;;;;;27.61;24.79;98463.44;5008850;28;19967;-84
2023/10/10 03:03:03;;;;;;;;;;;;;;;27.85;24.29;98467.53;5007800;28;19952;-84
2023/10/10 03:05:39;;;;;;;;;;;;;;;28.00;24.18;98472.31;5004855;28;20283;-84
2023/10/10 03:08:13;;;;;;;;;;;;;;;28.17;24.01;98470.16;5007441;28;20025;-84
2023/10/10 03:10:41;;;;;;;;;;;;;;;28.12;24.25;98469.94;5010018;28;19921;-84
2023/10/10 03:13:27;;;;;;;;;;;;;;;27.69;24.58;98468.41;5006163;28;20015;-85
2023/10/10 03:15:55;;;;;;;;;;;;;;;27.42;24.99;98470.84;5005885;28;19921;-84
2023/10/10 03:18:29;;;;;;;;;;;;;;;27.58;24.76;98473.59;5001506;28;19926;-84
2023/10/10 03:26:19;;;;;;;;;;;;;;;28.06;24.33;98478.97;5004733;28;19937;-84
2023/10/10 03:28:47;;;;;;;;;;;;;;;28.08;24.20;98477.75;5010939;28;19948;-84
2023/10/10 05:25:31;;;;;;;;;;;;;;;26.83;25.65;98505.09;5007159;28;20361;-85
2023/10/10 05:28:00;;;;;;;;;;;;;;;26.95;25.61;98514.84;5014268;28;19925;-85
2023/10/10 05:30:39;;;;;;;;;;;;;;;27.36;25.25;98514.91;5014679;28;19924;-85
2023/10/10 05:33:06;;;;;;;;;;;;;;;28.11;24.25;98516.34;5014644;28;20295;-85
2023/10/10 05:35:38;;;;;;;;;;;;;;;28.09;23.99;98519.63;5015475;28;19924;-85
2023/10/10 05:38:08;;;;;;;;;;;;;;;27.53;25.04;98521.31;5013962;28;19929;-85
2023/10/10 05:40:35;;;;;;;;;;;;;;;27.64;25.00;98518.97;5022432;28;19921;-85
2023/10/10 05:43:02;;;;;;;;;;;;;;;27.51;24.82;98524.59;5018228;28;19928;-85
2023/10/10 05:45:29;;;;;;;;;;;;;;;27.59;24.79;98525.16;5014746;28;19928;-84
2023/10/10 05:47:55;;;;;;;;;;;;;;;27.54;24.90;98529.31;5014516;28;20008;-85
2023/10/10 05:50:22;;;;;;;;;;;;;;;27.61;25.05;98523.47;5014745;28;19966;-84
2023/10/10 05:52:48;;;;;;;;;;;;;;;27.19;25.90;98519.03;5014003;28;19918;-83
2023/10/10 05:55:17;;;;;;;;;;;;;;;27.51;25.49;98529.44;5014372;28;19924;-83
2023/10/10 05:57:43;;;;;;;;;;;;;;;27.90;24.83;98529.06;5013983;28;19987;-82
2023/10/10 06:00:16;;;;;;;;;;;;;;;28.34;24.24;98524.47;5018594;28;19964;-83
2023/10/10 06:02:44;;;;;;;;;;;;;;;27.58;25.18;98532.84;5014695;28;19929;-83
2023/10/10 06:05:10;;;;;;;;;;;;;;;27.05;25.80;98525.06;5014330;28;19925;-82
2023/10/10 06:07:43;;;;;;;;;;;;;;;26.96;26.14;98524.88;5014160;28;19951;-83
2023/10/10 06:10:15;;;;;;;;;;;;;;;26.53;26.29;98522.34;5014179;28;19937;-83
2023/10/10 06:12:50;;;;;;;;;;;;;;;26.92;26.16;98527.00;5013862;28;19921;-83
2023/10/10 06:15:17;;;;;;;;;;;;;;;26.53;26.40;98520.31;5013861;28;20399;-82
2023/10/10 06:17:44;;;;;;;;;;;;;;;25.73;27.51;98531.41;5014705;28;19929;-83
2023/10/10 06:20:10;;;;;;;;;;;;;;;26.14;27.35;98530.94;5014156;28;19924;-83
2023/10/10 06:22:37;;;;;;;;;;;;;;;26.52;26.64;98521.53;5014034;28;19925;-83
2023/10/10 06:25:05;;;;;;;;;;;;;;;26.86;26.61;98517.50;5014133;28;20270;-83
2023/10/10 06:27:36;;;;;;;;;;;;;;;26.42;27.03;98522.59;5014124;28;20804;-83
2023/10/10 06:30:04;;;;;;;;;;;;;;;26.36;27.23;98529.19;5014666;28;20008;-84
2023/10/10 06:32:33;;;;;;;;;;;;;;;26.26;27.00;98525.41;5013515;28;19921;-86
2023/10/10 06:35:36;;;;;;;;;;;;;;;25.52;28.30;98529.84;5014580;28;19937;-85
2023/10/10 06:37:54;;;;;;;;;;;;;;;26.49;27.40;98536.50;5012321;28;20004;-85
2023/10/10 06:40:29;;;;;;;;;;;;;;;25.88;27.50;98530.66;5028903;28;20006;-85
2023/10/10 06:42:56;;;;;;;;;;;;;;;25.51;28.53;98541.53;5011452;28;19925;-85
2023/10/10 06:45:26;;;;;;;;;;;;;;;26.07;27.85;98529.03;5013508;28;19921;-85
2023/10/10 06:47:53;;;;;;;;;;;;;;;26.75;27.13;98531.84;5013982;28;19917;-87
2023/10/10 06:50:21;;;;;;;;;;;;;;;24.66;29.88;98545.84;5014028;28;20369;-85
2023/10/10 06:52:52;;;;;;;;;;;;;;;23.79;30.99;98543.13;5014684;28;20369;-86
2023/10/10 06:55:36;;;;;;;;;;;;;;;25.64;28.89;98545.25;5014050;28;19983;-86
2023/10/10 06:58:12;;;;;;;;;;;;;;;27.27;26.47;98542.97;4994591;28;20366;-86
2023/10/10 07:00:45;;;;;;;;;;;;;;;27.81;25.74;98541.03;4993270;28;19933;-86
2023/10/10 07:03:11;;;;;;;;;;;;;;;27.39;26.85;98543.03;4994756;28;19926;-84
2023/10/10 07:05:42;;;;;;;;;;;;;;;27.98;26.18;98538.91;5005118;28;19918;-84
2023/10/10 07:08:41;;;;;;;;;;;;;;;28.21;25.44;98546.28;5019232;28;19940;-86
2023/10/10 07:11:03;;;;;;;;;;;;;;;28.13;26.53;98550.56;5032559;28;19921;-87
2023/10/10 07:13:29;;;;;;;;;;;;;;;28.58;24.99;98551.94;5033817;28;19979;-87
2023/10/10 07:15:56;;;;;;;;;;;;;;;28.25;25.60;98550.56;5015238;28;19924;-86
2023/10/10 07:18:22;;;;;;;;;;;;;;;28.35;25.21;98554.31;5014021;28;19922;-87
2023/10/10 07:21:06;;;;;;;;;;;;;;;28.13;25.97;98551.34;5011295;28;19957;-84
2023/10/10 07:23:41;;;;;;;;;;;;;;;28.42;25.58;98552.06;5012386;28;19928;-84
2023/10/10 07:26:18;;;;;;;;;;;;;;;28.34;26.10;98555.53;5014219;28;19972;-84
2023/10/10 07:28:53;;;;;;;;;;;;;;;27.40;27.17;98553.06;5013677;28;19922;-84
2023/10/10 07:31:21;;;;;;;;;;;;;;;26.53;28.23;98556.94;5008177;28;19932;-84
2023/10/10 07:34:03;;;;;;;;;;;;;;;26.24;28.48;98553.19;5003622;28;19969;-84
2023/10/10 07:36:31;;;;;;;;;;;;;;;25.61;29.52;98548.94;5013145;28;20011;-85
2023/10/10 07:41:45;;;;;;;;;;;;;;;25.92;29.20;98548.28;5013609;28;19924;-85
2023/10/10 07:44:11;;;;;;;;;;;;;;;26.04;29.68;98552.44;5013103;28;19920;-84
2023/10/10 07:46:37;;;;;;;;;;;;;;;27.19;27.71;98558.50;5012178;28;20346;-85
2023/10/10 07:49:03;;;;;;;;;;;;;;;27.02;28.61;98559.75;5013272;28;19918;-85
2023/10/10 07:51:29;;;;;;;;;;;;;;;27.93;26.77;98551.53;5013093;28;19925;-85
2023/10/10 07:54:17;;;;;;;;;;;;;;;27.95;26.79;98554.72;5013746;28;20021;-85
2023/10/10 07:56:47;;;;;;;;;;;;;;;28.32;26.51;98560.84;5016871;28;20408;-85
2023/10/10 07:59:13;;;;;;;;;;;;;;;28.89;25.82;98566.28;5022830;28;20008;-85
2023/10/10 08:01:41;;;;;;;;;;;;;;;29.51;25.03;98567.34;5025353;28;20381;-85
2023/10/10 08:04:07;;;;;;;;;;;;;;;28.72;25.38;98567.66;5017444;28;19925;-85
2023/10/10 08:06:33;;;;;;;;;;;;;;;28.39;26.31;98561.44;5016258;28;19921;-85
2023/10/10 08:09:18;;;;;;;;;;;;;;;27.61;27.18;98560.13;5016100;28;20024;-85
2023/10/10 08:11:45;;;;;;;;;;;;;;;27.30;27.68;98551.31;5014714;28;19925;-84
2023/10/10 08:14:11;;;;;;;;;;;;;;;27.25;27.90;98554.69;5016197;28;20009;-84
2023/10/10 08:16:39;;;;;;;;;;;;;;;28.09;27.29;98553.50;5016841;28;19928;-84
2023/10/10 08:19:06;;;;;;;;;;;;;;;28.37;26.00;98558.28;5016401;28;19983;-85
2023/10/10 08:21:37;;;;;;;;;;;;;;;29.31;26.40;98556.31;5014640;28;19921;-85
2023/10/10 08:24:07;;;;;;;;;;;;;;;29.89;24.92;98555.84;5016031;28;19975;-85
2023/10/10 08:26:39;;;;;;;;;;;;;;;30.00;25.43;98559.84;4997738;28;19925;-85
2023/10/10 08:29:07;;;;;;;;;;;;;;;30.73;24.28;98560.19;4997449;28;19921;-85
2023/10/10 08:31:33;;;;;;;;;;;;;;;30.51;24.57;98560.28;5001608;28;19925;-85
2023/10/10 08:33:59;;;;;;;;;;;;;;;30.38;25.21;98561.63;5028863;28;20008;-85
2023/10/10 08:36:25;;;;;;;;;;;;;;;30.71;24.63;98560.66;5036340;28;20004;-85
2023/10/10 08:38:57;;;;;;;;;;;;;;;30.98;23.80;98553.50;5026062;28;19928;-85
2023/10/10 08:41:28;;;;;;;;;;;;;;;30.31;25.78;98568.34;5016360;28;19928;-85
2023/10/10 08:44:05;;;;;;;;;;;;;;;30.39;24.92;98574.53;5016798;28;20400;-85
2023/10/10 08:46:40;;;;;;;;;;;;;;;29.70;25.66;98573.94;5015389;28;20373;-85
2023/10/10 08:49:07;;;;;;;;;;;;;;;30.00;24.95;98571.19;5016631;28;19918;-85
2023/10/10 08:51:33;;;;;;;;;;;;;;;30.65;23.95;98575.91;5017359;28;19918;-85
2023/10/10 08:54:01;;;;;;;;;;;;;;;30.33;24.41;98579.25;5016602;28;19921;-85
2023/10/10 08:56:33;;;;;;;;;;;;;;;29.82;24.79;98581.59;5015482;28;19945;-85
2023/10/10 08:59:01;;;;;;;;;;;;;;;29.57;24.96;98584.53;5016523;28;20484;-85
2023/10/10 09:01:33;;;;;;;;;;;;;;;30.07;25.42;98584.25;5014128;28;20349;-85
2023/10/10 09:04:02;;;;;;;;;;;;;;;30.50;24.44;98589.84;5016293;28;19968;-85
2023/10/10 09:06:43;;;;;;;;;;;;;;;31.05;23.82;98590.06;5015621;28;19921;-85
2023/10/10 09:09:33;;;;;;;;;;;;;;;31.69;23.87;98591.75;5012534;28;19945;-85
2023/10/10 09:11:56;;;;;;;;;;;;;;;32.08;24.19;98598.50;5013646;28;20025;-86
2023/10/10 09:14:34;;;;;;;;;;;;;;;32.29;23.50;98591.81;5015169;28;19925;-86
2023/10/10 09:17:02;;;;;;;;;;;;;;;32.21;22.69;98595.47;5016065;28;19976;-85
2023/10/10 09:19:28;;;;;;;;;;;;;;;31.82;23.33;98592.34;5015962;28;20282;-85
2023/10/10 09:21:56;;;;;;;;;;;;;;;31.07;24.30;98593.22;5014724;28;19924;-86
2023/10/10 09:24:31;;;;;;;;;;;;;;;30.79;24.53;98589.50;5010073;28;19964;-85
2023/10/10 09:26:59;;;;;;;;;;;;;;;30.77;23.85;98595.66;5015583;28;19921;-85
2023/10/10 09:29:32;;;;;;;;;;;;;;;30.94;23.99;98592.56;5013728;28;19920;-86
2023/10/10 09:31:59;;;;;;;;;;;;;;;30.70;24.76;98600.81;5015695;28;19933;-86
2023/10/10 09:34:28;;;;;;;;;;;;;;;29.42;26.02;98595.56;5015623;28;19921;-86
2023/10/10 09:36:57;;;;;;;;;;;;;;;29.92;26.23;98592.50;5015551;28;19922;-86
2023/10/10 09:39:35;;;;;;;;;;;;;;;29.97;24.88;98596.78;5014817;28;19948;-85
2023/10/10 09:42:07;;;;;;;;;;;;;;;30.35;26.18;98593.72;5012209;28;19921;-86
2023/10/10 09:44:53;;;;;;;;;;;;;;;31.15;24.18;98592.47;5015439;28;19918;-86
2023/10/10 09:52:58;;;;;;;;;;;;;;;30.89;24.94;98596.81;5015836;28;19917;-86
2023/10/10 10:00:46;;;;;;;;;;;;;;;30.25;25.04;98586.41;5032105;28;20015;-86
2023/10/10 10:06:00;;;;;;;;;;;;;;;31.17;24.57;98583.47;4995650;28;19940;-86
2023/10/10 10:08:37;;;;;;;;;;;;;;;31.02;24.99;98585.31;4995377;28;19918;-86
2023/10/10 10:11:22;;;;;;;;;;;;;;;31.17;24.42;98580.63;4996238;28;19949;-86
2023/10/10 10:13:48;;;;;;;;;;;;;;;30.54;24.98;98582.03;5015101;28;19924;-86
2023/10/10 10:16:34;;;;;;;;;;;;;;;30.07;25.62;98575.78;5014617;28;19926;-86
2023/10/10 10:19:18;;;;;;;;;;;;;;;29.88;25.90;98576.91;5014957;28;19921;-86
2023/10/10 10:22:06;;;;;;;;;;;;;;;31.05;26.04;98573.03;5011318;28;19925;-86
2023/10/10 10:24:52;;;;;;;;;;;;;;;31.90;24.14;98570.09;4995059;28;19918;-87
2023/10/10 10:27:35;;;;;;;;;;;;;;;31.89;23.60;98574.19;5008472;28;19929;-86
2023/10/10 10:32:42;;;;;;;;;;;;;;;32.02;24.01;98580.53;5013866;28;19926;-87
2023/10/10 10:35:12;;;;;;;;;;;;;;;32.48;23.71;98579.13;5013491;28;19964;-87
2023/10/10 10:37:40;;;;;;;;;;;;;;;32.70;23.34;98571.13;5014393;28;19960;-87
2023/10/10 10:42:42;;;;;;;;;;;;;;;32.69;22.72;98583.00;5012905;28;20357;-87
2023/10/10 10:45:33;;;;;;;;;;;;;;;32.85;22.74;98588.28;5014307;28;19917;-87
2023/10/10 10:48:03;;;;;;;;;;;;;;;33.08;22.85;98579.00;5012754;28;19925;-87
2023/10/10 10:50:40;;;;;;;;;;;;;;;33.09;22.67;98580.59;5027686;28;19917;-87
2023/10/10 10:53:31;;;;;;;;;;;;;;;30.78;24.88;98574.53;5014216;28;19925;-87
2023/10/10 10:56:37;;;;;;;;;;;;;;;29.43;26.32;98571.66;5014538;28;20004;-87
2023/10/10 11:01:30;;;;;;;;;;;;;;;30.16;26.37;98575.81;5014141;28;19926;-87
2023/10/10 11:03:56;;;;;;;;;;;;;;;29.96;25.66;98576.19;5014374;28;19917;-87
2023/10/10 11:06:24;;;;;;;;;;;;;;;29.99;25.78;98563.91;5021072;28;20019;-86
2023/10/10 11:14:00;;;;;;;;;;;;;;;32.78;23.98;98560.19;5013157;28;20388;-87
2023/10/10 11:16:39;;;;;;;;;;;;;;;32.10;23.75;98553.34;5013858;28;19976;-87
2023/10/10 11:21:48;;;;;;;;;;;;;;;31.12;24.29;98559.34;5011496;28;20377;-87
2023/10/10 11:24:15;;;;;;;;;;;;;;;31.37;24.30;98549.75;5014491;28;19964;-87
2023/10/10 11:26:43;;;;;;;;;;;;;;;31.95;22.91;98555.25;5013855;28;19918;-87
2023/10/10 11:29:29;;;;;;;;;;;;;;;31.86;23.95;98550.38;5012037;28;19929;-87
2023/10/10 11:32:07;;;;;;;;;;;;;;;32.06;24.14;98550.69;5011672;28;19972;-86
2023/10/10 11:34:42;;;;;;;;;;;;;;;31.86;23.73;98550.38;5013291;28;20267;-86
2023/10/10 11:37:17;;;;;;;;;;;;;;;31.66;23.67;98557.81;5010824;28;19925;-87
2023/10/10 11:39:58;;;;;;;;;;;;;;;31.84;24.37;98552.91;5006561;28;20331;-86
2023/10/10 11:42:27;;;;;;;;;;;;;;;32.23;23.47;98556.75;4998125;28;19988;-87
2023/10/10 11:44:59;;;;;;;;;;;;;;;32.21;23.42;98561.38;5002931;28;19964;-86
2023/10/10 11:47:26;;;;;;;;;;;;;;;32.55;23.29;98556.06;5013456;28;19925;-87
2023/10/10 11:50:00;;;;;;;;;;;;;;;32.76;23.40;98557.06;5012999;28;19929;-87
2023/10/10 11:52:27;;;;;;;;;;;;;;;32.92;22.74;98559.47;5013600;28;19924;-87
2023/10/10 11:54:58;;;;;;;;;;;;;;;33.02;23.31;98552.50;5013607;28;19918;-87
2023/10/10 11:57:28;;;;;;;;;;;;;;;30.74;24.82;98559.72;5014018;28;20343;-86
2023/10/10 12:00:07;;;;;;;;;;;;;;;30.97;25.08;98554.78;5013640;28;20059;-88
2023/10/10 12:02:43;;;;;;;;;;;;;;;31.18;24.47;98554.63;5013172;28;20316;-87
2023/10/10 12:05:47;;;;;;;;;;;;;;;30.38;25.23;98545.44;5012633;28;20377;-87
2023/10/10 12:08:05;;;;;;;;;;;;;;;29.38;26.55;98550.41;5002898;28;20373;-86
2023/10/10 12:13:09;;;;;;;;;;;;;;;30.51;25.00;98543.28;5013388;28;19918;-85
2023/10/10 12:15:40;;;;;;;;;;;;;;;30.63;25.21;98536.69;5013973;28;20369;-86
2023/10/10 12:18:09;;;;;;;;;;;;;;;30.88;24.73;98541.34;5013306;28;20336;-85
2023/10/10 12:20:36;;;;;;;;;;;;;;;30.87;25.16;98533.28;4997695;28;19917;-87
2023/10/10 12:23:03;;;;;;;;;;;;;;;31.27;25.61;98539.66;4993727;28;19918;-85
2023/10/10 12:25:29;;;;;;;;;;;;;;;31.25;24.85;98540.13;4993739;28;19922;-85
2023/10/10 12:28:00;;;;;;;;;;;;;;;31.48;24.73;98535.91;5011813;28;19925;-85
2023/10/10 12:30:26;;;;;;;;;;;;;;;31.98;23.35;98538.06;5012660;28;19964;-86
2023/10/10 12:32:52;;;;;;;;;;;;;;;32.36;23.74;98540.31;5013464;28;20057;-87
2023/10/10 12:35:23;;;;;;;;;;;;;;;32.43;23.50;98547.69;5013133;28;20404;-87
2023/10/10 12:37:49;;;;;;;;;;;;;;;32.36;23.90;98542.34;5011968;28;19926;-88
2023/10/10 12:40:15;;;;;;;;;;;;;;;31.68;24.02;98541.09;5011938;28;19925;-87
2023/10/10 12:42:41;;;;;;;;;;;;;;;31.81;24.71;98536.81;5014771;28;19928;-88
2023/10/10 12:45:08;;;;;;;;;;;;;;;32.21;23.79;98542.25;5011163;28;20333;-89
2023/10/10 12:47:34;;;;;;;;;;;;;;;32.83;22.61;98539.63;5014752;28;20004;-87
2023/10/10 12:50:04;;;;;;;;;;;;;;;32.31;23.49;98537.31;4997284;28;20366;-88
2023/10/10 12:52:45;;;;;;;;;;;;;;;31.55;24.24;98541.28;5006014;28;19929;-87
2023/10/10 12:55:11;;;;;;;;;;;;;;;31.88;23.93;98530.03;5012944;28;19925;-88
2023/10/10 12:57:38;;;;;;;;;;;;;;;32.51;24.31;98531.91;5010217;28;19921;-89
2023/10/10 13:03:06;;;;;;;;;;;;;;;33.41;22.64;98534.16;4996011;28;19925;-89
2023/10/10 13:05:33;;;;;;;;;;;;;;;33.61;22.97;98542.06;5015863;28;19943;-88
2023/10/10 13:07:59;;;;;;;;;;;;;;;33.74;22.81;98536.91;5014588;28;20012;-88
2023/10/10 13:10:30;;;;;;;;;;;;;;;33.72;21.94;98538.66;5013725;28;19926;-88
2023/10/10 13:12:56;;;;;;;;;;;;;;;33.73;22.59;98535.31;5010664;28;19921;-90
2023/10/10 13:15:29;;;;;;;;;;;;;;;33.74;22.53;98531.22;5013690;28;20293;-88
2023/10/10 13:20:43;;;;;;;;;;;;;;;32.94;23.28;98537.03;5005133;28;19928;-88
2023/10/10 13:23:09;;;;;;;;;;;;;;;33.33;23.11;98535.81;5011409;28;19960;-88
2023/10/10 13:25:39;;;;;;;;;;;;;;;33.14;22.65;98534.38;5012360;28;19922;-90
2023/10/10 13:28:09;;;;;;;;;;;;;;;33.08;23.53;98533.47;4999665;28;19921;-90
2023/10/10 13:30:38;;;;;;;;;;;;;;;33.27;22.86;98536.97;5010078;28;20265;-89
2023/10/10 13:33:06;;;;;;;;;;;;;;;32.65;23.17;98531.22;4999023;28;19979;-88
2023/10/10 13:35:36;;;;;;;;;;;;;;;32.77;23.43;98535.09;5014878;28;19929;-87
2023/10/10 13:38:03;;;;;;;;;;;;;;;33.10;23.23;98535.81;5012420;28;19921;-90
2023/10/10 13:40:37;;;;;;;;;;;;;;;33.02;22.99;98541.13;5013325;28;19925;-89
2023/10/10 13:43:08;;;;;;;;;;;;;;;33.02;23.57;98538.28;5008184;28;19921;-89
2023/10/10 13:45:35;;;;;;;;;;;;;;;33.18;23.63;98542.75;5006565;28;19922;-88
2023/10/10 13:48:03;;;;;;;;;;;;;;;33.37;22.91;98530.69;5013044;28;20008;-89
2023/10/10 13:50:40;;;;;;;;;;;;;;;32.73;22.86;98535.25;5011229;28;19933;-89
2023/10/10 13:53:07;;;;;;;;;;;;;;;32.67;23.49;98529.44;5011835;28;20285;-88
2023/10/10 13:55:34;;;;;;;;;;;;;;;32.66;23.91;98539.25;5014839;28;20443;-89
2023/10/10 13:58:00;;;;;;;;;;;;;;;32.74;23.50;98534.75;5014717;28;19929;-89
2023/10/10 14:00:33;;;;;;;;;;;;;;;33.14;23.23;98533.59;5012690;28;20388;-89
2023/10/10 14:03:05;;;;;;;;;;;;;;;33.56;22.99;98533.44;5008507;28;19933;-89
2023/10/10 14:05:33;;;;;;;;;;;;;;;33.81;22.78;98518.63;5004507;28;19921;-87
2023/10/10 14:08:02;;;;;;;;;;;;;;;33.91;22.75;98518.03;4999472;28;19973;-88
2023/10/10 14:10:38;;;;;;;;;;;;;;;33.97;23.08;98512.44;5010297;28;19929;-88
2023/10/10 14:13:20;;;;;;;;;;;;;;;33.65;23.27;98507.72;5008456;28;20405;-89
2023/10/10 14:15:56;;;;;;;;;;;;;;;33.12;23.45;98513.34;5012877;28;19925;-88
2023/10/10 14:18:23;;;;;;;;;;;;;;;32.74;23.83;98505.56;5006279;28;19926;-89
2023/10/10 14:20:50;;;;;;;;;;;;;;;32.71;24.23;98515.84;5015010;28;19929;-89
2023/10/10 14:23:26;;;;;;;;;;;;;;;32.88;24.05;98518.25;5015706;28;19921;-88
2023/10/10 14:26:03;;;;;;;;;;;;;;;33.12;24.01;98525.53;5027827;28;19926;-89
2023/10/10 14:28:29;;;;;;;;;;;;;;;33.35;23.41;98524.72;5014244;28;19929;-89
2023/10/10 14:30:58;;;;;;;;;;;;;;;33.36;23.77;98539.75;5014089;28;19922;-86
2023/10/10 14:33:25;;;;;;;;;;;;;;;33.52;23.60;98532.78;5013228;28;19926;-88
2023/10/10 14:35:51;;;;;;;;;;;;;;;33.43;23.03;98530.81;5008813;28;19991;-88
2023/10/10 14:38:18;;;;;;;;;;;;;;;33.00;24.21;98529.38;5014774;28;20370;-88
2023/10/10 14:40:44;;;;;;;;;;;;;;;32.81;24.13;98532.84;5020852;28;19983;-88
2023/10/10 14:43:10;;;;;;;;;;;;;;;32.46;24.77;98530.47;5006351;28;19918;-89
2023/10/10 14:45:43;;;;;;;;;;;;;;;32.24;24.62;98529.13;5026822;28;19929;-87
2023/10/10 14:48:18;;;;;;;;;;;;;;;32.04;25.44;98535.38;5009398;28;19968;-88
2023/10/10 14:50:52;;;;;;;;;;;;;;;32.56;24.98;98534.88;5004061;28;19926;-89
2023/10/10 14:53:22;;;;;;;;;;;;;;;32.94;24.27;98545.56;5006400;28;19921;-89
2023/10/10 14:55:51;;;;;;;;;;;;;;;32.94;24.33;98547.59;5011763;28;20003;-91
2023/10/10 14:58:23;;;;;;;;;;;;;;;32.98;23.67;98543.31;5012919;28;19921;-91
2023/10/10 15:00:52;;;;;;;;;;;;;;;32.76;24.42;98542.81;5009263;28;19921;-91
2023/10/10 15:03:25;;;;;;;;;;;;;;;32.55;24.22;98541.84;5007854;28;19932;-92
2023/10/10 15:05:51;;;;;;;;;;;;;;;32.52;24.73;98542.00;5010484;28;19921;-93
2023/10/10 15:08:18;;;;;;;;;;;;;;;32.54;24.46;98548.78;5010982;28;20595;-91
2023/10/10 15:10:45;;;;;;;;;;;;;;;32.43;25.10;98545.66;5012579;28;19921;-89
2023/10/10 15:13:15;;;;;;;;;;;;;;;32.34;24.56;98542.06;5012299;28;19967;-88
2023/10/10 15:15:45;;;;;;;;;;;;;;;32.08;24.97;98547.34;4995671;28;19918;-89
2023/10/10 15:18:18;;;;;;;;;;;;;;;32.00;25.63;98532.69;5011476;28;19927;-89
2023/10/10 15:20:46;;;;;;;;;;;;;;;31.98;25.13;98540.91;5017969;28;20014;-90
2023/10/10 15:23:19;;;;;;;;;;;;;;;31.95;25.47;98541.06;5020873;28;19922;-89
2023/10/10 15:25:52;;;;;;;;;;;;;;;32.43;24.97;98539.16;5006908;28;19921;-90
2023/10/10 15:28:18;;;;;;;;;;;;;;;32.60;24.63;98535.47;5006631;28;19945;-91
2023/10/10 15:30:44;;;;;;;;;;;;;;;32.55;24.86;98538.19;5007076;28;19936;-90
2023/10/10 15:33:10;;;;;;;;;;;;;;;32.56;24.45;98539.75;5010188;28;19932;-90
2023/10/10 15:35:39;;;;;;;;;;;;;;;31.95;25.46;98536.13;5005056;28;19972;-91
2023/10/10 15:38:09;;;;;;;;;;;;;;;31.68;25.94;98543.94;5003683;28;19940;-90
2023/10/10 15:40:39;;;;;;;;;;;;;;;31.52;26.27;98538.59;5007795;28;19968;-88
2023/10/10 15:43:05;;;;;;;;;;;;;;;31.38;26.35;98537.13;5010743;28;19917;-89
2023/10/10 15:45:37;;;;;;;;;;;;;;;31.95;25.58;98536.13;5010370;28;19956;-89
2023/10/10 15:48:04;;;;;;;;;;;;;;;32.48;25.02;98541.34;5008570;28;20071;-89
2023/10/10 15:50:31;;;;;;;;;;;;;;;32.57;24.78;98542.13;5014140;28;20012;-88
2023/10/10 15:52:57;;;;;;;;;;;;;;;32.04;25.54;98544.66;5010964;28;19922;-89
2023/10/10 15:55:23;;;;;;;;;;;;;;;31.90;25.01;98544.53;5006586;28;19975;-88
2023/10/10 15:57:52;;;;;;;;;;;;;;;31.94;25.25;98548.78;5009733;28;19929;-88